createdAt,value
2023-02-18T00:01:29.654Z,51.57
2023-02-18T00:03:57.677Z,51.59
2023-02-18T00:06:28.261Z,51.23
2023-02-18T00:08:58.706Z,51.18
2023-02-18T00:11:26.036Z,51.31
2023-02-18T00:13:55.512Z,51.51
2023-02-18T00:16:26.395Z,51.31
2023-02-18T00:18:57.149Z,51.31
2023-02-18T00:21:24.443Z,51.45
2023-02-18T00:23:51.615Z,51.48
2023-02-18T00:26:20.118Z,51.30
2023-02-18T00:28:48.837Z,51.01
2023-02-18T00:31:19.415Z,51.33
2023-02-18T00:33:47.954Z,51.01
2023-02-18T00:36:19.015Z,51.17
2023-02-18T00:38:47.643Z,51.00
2023-02-18T00:41:15.612Z,50.90
2023-02-18T00:43:43.769Z,51.03
2023-02-18T00:46:11.994Z,51.06
2023-02-18T00:48:39.430Z,50.88
2023-02-18T00:51:08.606Z,50.94
2023-02-18T00:53:36.382Z,50.83
2023-02-18T00:56:04.643Z,50.98
2023-02-18T00:58:32.011Z,51.00
2023-02-18T01:00:58.932Z,51.06
2023-02-18T01:03:26.561Z,50.74
2023-02-18T01:05:53.914Z,50.67
2023-02-18T01:08:23.162Z,50.86
2023-02-18T01:10:54.664Z,50.63
2023-02-18T01:13:22.119Z,50.61
2023-02-18T01:15:49.532Z,50.80
2023-02-18T01:18:17.308Z,50.58
2023-02-18T01:20:45.344Z,50.41
2023-02-18T01:23:14.046Z,50.72
2023-02-18T01:25:42.808Z,50.29
2023-02-18T01:28:12.260Z,50.46
2023-02-18T01:30:39.629Z,50.56
2023-02-18T01:33:07.115Z,50.54
2023-02-18T01:35:34.775Z,50.42
2023-02-18T01:38:02.598Z,50.64
2023-02-18T01:40:30.282Z,50.76
2023-02-18T01:42:58.561Z,50.78
2023-02-18T01:46:03.929Z,50.69
2023-02-18T01:48:39.636Z,50.84
2023-02-18T01:51:13.517Z,50.77
2023-02-18T01:53:49.926Z,50.64
2023-02-18T01:56:25.572Z,51.13
2023-02-18T01:58:59.818Z,51.17
2023-02-18T02:01:27.854Z,51.04
2023-02-18T02:03:55.778Z,50.90
2023-02-18T02:06:25.094Z,51.03
2023-02-18T02:08:57.394Z,50.95
2023-02-18T02:11:41.326Z,50.97
2023-02-18T02:14:25.309Z,50.84
2023-02-18T02:17:03.378Z,50.75
2023-02-18T02:20:24.977Z,51.11
2023-02-18T02:23:30.351Z,50.89
2023-02-18T02:26:43.968Z,50.90
2023-02-18T02:29:51.556Z,50.69
2023-02-18T02:33:00.014Z,50.83
2023-02-18T02:35:34.474Z,50.99
2023-02-18T02:38:08.208Z,50.72
2023-02-18T02:40:46.236Z,50.53
2023-02-18T02:43:25.595Z,50.69
2023-02-18T02:46:00.443Z,50.61
2023-02-18T02:48:42.772Z,50.45
2023-02-18T02:51:18.541Z,50.39
2023-02-18T02:53:45.439Z,50.59
2023-02-18T02:56:17.954Z,50.54
2023-02-18T02:58:50.640Z,50.18
2023-02-18T03:01:35.423Z,50.44
2023-02-18T03:04:27.690Z,50.20
2023-02-18T03:07:39.502Z,50.20
2023-02-18T03:10:30.589Z,50.22
2023-02-18T03:13:09.842Z,50.08
2023-02-18T03:15:46.394Z,50.17
2023-02-18T03:18:23.071Z,50.25
2023-02-18T03:20:57.066Z,50.08
2023-02-18T03:23:32.629Z,50.17
2023-02-18T03:26:03.417Z,50.07
2023-02-18T03:28:32.870Z,49.96
2023-02-18T03:31:06.975Z,50.13
2023-02-18T03:33:41.957Z,49.93
2023-02-18T03:36:10.248Z,49.92
2023-02-18T03:38:45.788Z,49.85
2023-02-18T03:41:13.009Z,49.81
2023-02-18T03:43:41.172Z,49.93
2023-02-18T03:46:08.619Z,50.07
2023-02-18T03:48:35.748Z,49.98
2023-02-18T03:51:02.739Z,50.13
2023-02-18T03:53:29.605Z,49.97
2023-02-18T03:55:57.952Z,49.98
2023-02-18T03:58:24.907Z,50.13
2023-02-18T04:00:51.868Z,50.20
2023-02-18T04:03:18.896Z,50.14
2023-02-18T04:05:45.854Z,50.14
2023-02-18T04:08:12.738Z,50.27
2023-02-18T04:10:39.696Z,50.19
2023-02-18T04:13:08.160Z,50.11
2023-02-18T04:15:35.214Z,50.28
2023-02-18T04:18:02.257Z,50.18
2023-02-18T04:20:29.717Z,50.22
2023-02-18T04:22:56.633Z,50.61
2023-02-18T04:25:23.548Z,50.76
2023-02-18T04:27:50.494Z,51.25
2023-02-18T04:30:19.333Z,51.54
2023-02-18T04:32:46.500Z,51.76
2023-02-18T04:35:13.466Z,52.41
2023-02-18T04:37:40.516Z,52.48
2023-02-18T04:40:09.013Z,52.41
2023-02-18T04:42:36.355Z,52.71
2023-02-18T04:45:03.776Z,53.81
2023-02-18T04:47:32.155Z,53.80
2023-02-18T04:49:59.258Z,53.79
2023-02-18T04:52:26.349Z,53.78
2023-02-18T04:54:53.321Z,53.82
2023-02-18T04:57:20.240Z,54.00
2023-02-18T04:59:47.112Z,54.03
2023-02-18T05:02:14.035Z,54.20
2023-02-18T05:04:42.268Z,54.11
2023-02-18T05:07:09.200Z,54.05
2023-02-18T05:09:36.211Z,54.08
2023-02-18T05:12:03.633Z,54.07
2023-02-18T05:14:30.550Z,54.16
2023-02-18T05:16:57.502Z,54.22
2023-02-18T05:19:24.560Z,54.70
2023-02-18T05:21:52.904Z,54.76
2023-02-18T05:24:19.794Z,54.80
2023-02-18T05:26:46.691Z,55.07
2023-02-18T05:29:13.623Z,55.23
2023-02-18T05:31:40.765Z,55.51
2023-02-18T05:34:07.920Z,55.49
2023-02-18T05:36:35.070Z,55.70
2023-02-18T05:39:03.891Z,55.63
2023-02-18T05:41:31.043Z,56.07
2023-02-18T05:44:16.513Z,56.49
2023-02-18T05:46:43.471Z,57.22
2023-02-18T05:49:10.502Z,58.13
2023-02-18T05:51:37.524Z,58.59
2023-02-18T05:54:06.088Z,58.43
2023-02-18T05:56:33.053Z,59.21
2023-02-18T05:59:00.472Z,59.28
2023-02-18T06:01:41.805Z,59.86
2023-02-18T06:04:09.116Z,59.72
2023-02-18T06:06:36.250Z,59.88
2023-02-18T06:09:06.454Z,60.35
2023-02-18T06:11:34.440Z,60.50
2023-02-18T06:14:01.674Z,60.82
2023-02-18T06:16:29.346Z,60.48
2023-02-18T06:18:56.368Z,60.56
2023-02-18T06:21:23.937Z,60.58
2023-02-18T06:23:51.121Z,61.35
2023-02-18T06:26:19.706Z,61.04
2023-02-18T06:28:46.627Z,60.86
2023-02-18T06:31:13.826Z,60.90
2023-02-18T06:33:40.852Z,60.86
2023-02-18T06:36:11.955Z,60.86
2023-02-18T06:38:41.001Z,60.96
2023-02-18T06:41:09.356Z,60.73
2023-02-18T06:43:38.357Z,60.45
2023-02-18T06:46:06.131Z,60.49
2023-02-18T06:48:34.020Z,60.58
2023-02-18T06:51:01.037Z,60.09
2023-02-18T06:53:28.148Z,59.94
2023-02-18T06:55:55.096Z,59.81
2023-02-18T06:58:23.218Z,59.94
2023-02-18T07:00:51.688Z,60.44
2023-02-18T07:03:18.802Z,59.83
2023-02-18T07:05:45.766Z,59.97
2023-02-18T07:08:13.181Z,60.02
2023-02-18T07:10:40.426Z,60.09
2023-02-18T07:13:07.384Z,60.29
2023-02-18T07:15:34.350Z,60.33
2023-02-18T07:18:02.771Z,60.42
2023-02-18T07:20:30.174Z,60.50
2023-02-18T07:22:57.160Z,60.76
2023-02-18T07:25:24.557Z,61.20
2023-02-18T07:27:51.856Z,61.10
2023-02-18T07:30:19.480Z,61.19
2023-02-18T07:32:46.379Z,61.54
2023-02-18T07:35:17.282Z,61.95
2023-02-18T07:37:45.571Z,61.98
2023-02-18T07:40:15.166Z,62.38
2023-02-18T07:42:42.196Z,62.43
2023-02-18T07:45:10.452Z,62.83
2023-02-18T07:47:37.578Z,62.87
2023-02-18T07:50:06.444Z,63.04
2023-02-18T07:52:34.729Z,63.46
2023-02-18T07:55:01.878Z,63.97
2023-02-18T07:57:28.819Z,64.25
2023-02-18T07:59:55.759Z,64.48
2023-02-18T08:02:24.814Z,65.08
2023-02-18T08:04:52.291Z,65.28
2023-02-18T08:07:22.789Z,65.48
2023-02-18T08:09:51.197Z,65.71
2023-02-18T08:12:18.493Z,65.94
2023-02-18T08:14:45.854Z,66.27
2023-02-18T08:17:12.842Z,66.90
2023-02-18T08:19:39.832Z,66.83
2023-02-18T08:22:06.886Z,66.57
2023-02-18T08:24:33.785Z,66.32
2023-02-18T08:27:02.141Z,66.86
2023-02-18T08:29:30.111Z,66.37
2023-02-18T08:31:58.032Z,66.03
2023-02-18T08:34:25.773Z,66.08
2023-02-18T08:36:52.709Z,66.83
2023-02-18T08:39:19.694Z,66.24
2023-02-18T08:41:46.670Z,66.04
2023-02-18T08:44:14.962Z,65.95
2023-02-18T08:46:41.899Z,65.85
2023-02-18T08:49:08.875Z,65.60
2023-02-18T08:51:36.200Z,65.53
2023-02-18T08:54:03.584Z,65.55
2023-02-18T08:56:32.350Z,65.21
2023-02-18T08:58:59.604Z,65.46
2023-02-18T09:01:28.268Z,65.37
2023-02-18T09:03:55.319Z,65.68
2023-02-18T09:06:22.390Z,65.69
2023-02-18T09:08:49.435Z,65.57
2023-02-18T09:11:18.480Z,65.82
2023-02-18T09:13:45.976Z,65.38
2023-02-18T09:16:18.278Z,65.51
2023-02-18T09:18:48.083Z,65.65
2023-02-18T09:21:18.927Z,65.34
2023-02-18T09:23:46.255Z,65.34
2023-02-18T09:26:24.883Z,65.45
2023-02-18T09:28:54.245Z,64.98
2023-02-18T09:31:24.504Z,64.74
2023-02-18T09:33:59.516Z,64.96
2023-02-18T09:36:27.597Z,64.95
2023-02-18T09:38:55.296Z,64.90
2023-02-18T09:41:35.000Z,64.64
2023-02-18T09:44:09.548Z,64.73
2023-02-18T09:46:40.620Z,64.88
2023-02-18T09:49:18.734Z,65.08
2023-02-18T09:51:46.730Z,64.59
2023-02-18T09:54:18.828Z,64.60
2023-02-18T09:56:47.735Z,65.07
2023-02-18T09:59:19.112Z,64.64
2023-02-18T10:01:51.936Z,64.83
2023-02-18T10:04:27.744Z,64.69
2023-02-18T10:06:55.101Z,64.65
2023-02-18T10:09:28.269Z,64.73
2023-02-18T10:12:02.471Z,64.48
2023-02-18T10:14:29.913Z,64.60
2023-02-18T10:17:00.153Z,64.65
2023-02-18T10:19:36.087Z,64.35
2023-02-18T10:22:06.697Z,64.42
2023-02-18T10:24:39.036Z,64.46
2023-02-18T10:27:09.009Z,64.57
2023-02-18T10:29:36.705Z,64.58
2023-02-18T10:32:16.629Z,64.70
2023-02-18T10:34:51.886Z,64.69
2023-02-18T10:37:46.539Z,64.89
2023-02-18T10:40:23.619Z,65.02
2023-02-18T10:43:07.025Z,64.82
2023-02-18T10:45:45.780Z,64.64
2023-02-18T10:48:45.518Z,64.84
2023-02-18T10:51:19.302Z,64.96
2023-02-18T10:53:49.431Z,64.82
2023-02-18T10:56:38.855Z,65.10
2023-02-18T10:59:13.581Z,64.47
2023-02-18T11:01:43.519Z,64.82
2023-02-18T11:04:18.107Z,64.50
2023-02-18T11:06:48.993Z,64.53
2023-02-18T11:09:31.849Z,64.29
2023-02-18T11:12:09.202Z,64.24
2023-02-18T11:14:43.332Z,64.33
2023-02-18T11:17:25.881Z,63.88
2023-02-18T11:19:57.557Z,63.97
2023-02-18T11:22:32.967Z,63.62
2023-02-18T11:25:02.622Z,63.86
2023-02-18T11:27:39.378Z,63.67
2023-02-18T11:30:19.588Z,63.86
2023-02-18T11:32:49.858Z,63.65
2023-02-18T11:35:22.330Z,63.97
2023-02-18T11:37:51.825Z,64.23
2023-02-18T11:40:27.524Z,63.74
2023-02-18T11:43:06.046Z,63.92
2023-02-18T11:45:35.279Z,63.73
2023-02-18T11:48:08.672Z,64.41
2023-02-18T11:50:36.348Z,63.88
2023-02-18T11:53:28.939Z,63.87
2023-02-18T11:56:00.761Z,63.81
2023-02-18T11:58:40.997Z,63.75
2023-02-18T12:01:18.025Z,64.15
2023-02-18T12:03:53.829Z,63.75
2023-02-18T12:06:28.331Z,63.57
2023-02-18T12:09:05.557Z,63.97
2023-02-18T12:11:41.297Z,63.96
2023-02-18T12:14:17.511Z,63.58
2023-02-18T12:17:06.341Z,63.23
2023-02-18T12:19:53.940Z,63.35
2023-02-18T12:22:35.860Z,63.36
2023-02-18T12:25:23.699Z,63.19
2023-02-18T12:28:12.050Z,62.81
2023-02-18T12:31:10.421Z,62.77
2023-02-18T12:34:01.869Z,62.92
2023-02-18T12:36:51.796Z,62.82
2023-02-18T12:39:45.234Z,62.60
2023-02-18T12:42:42.103Z,62.94
2023-02-18T12:45:37.672Z,63.02
2023-02-18T12:48:52.926Z,63.13
2023-02-18T12:51:36.271Z,62.88
2023-02-18T12:54:27.660Z,63.10
2023-02-18T12:57:16.073Z,63.21
2023-02-18T13:00:22.633Z,62.96
2023-02-18T13:03:27.530Z,62.79
2023-02-18T13:06:07.264Z,62.95
2023-02-18T13:08:54.728Z,63.02
2023-02-18T13:11:38.998Z,62.72
2023-02-18T13:14:16.199Z,62.61
2023-02-18T13:16:50.930Z,62.83
2023-02-18T13:19:24.397Z,62.43
2023-02-18T13:21:58.334Z,62.03
2023-02-18T13:24:34.105Z,62.15
2023-02-18T13:27:15.883Z,61.79
2023-02-18T13:30:08.260Z,61.59
2023-02-18T13:32:48.416Z,61.50
2023-02-18T13:35:26.037Z,61.00
2023-02-18T13:38:24.074Z,60.60
2023-02-18T13:40:51.870Z,60.44
2023-02-18T13:43:30.076Z,60.29
2023-02-18T13:46:10.365Z,60.09
2023-02-18T13:48:46.545Z,59.98
2023-02-18T13:51:18.092Z,60.03
2023-02-18T13:53:52.445Z,59.90
2023-02-18T13:56:28.551Z,59.75
2023-02-18T13:59:02.849Z,59.76
2023-02-18T14:01:41.487Z,59.71
2023-02-18T14:04:54.482Z,59.37
2023-02-18T14:07:49.054Z,59.10
2023-02-18T14:10:35.313Z,58.95
2023-02-18T14:13:24.655Z,59.06
2023-02-18T14:16:01.313Z,58.95
2023-02-18T14:18:52.602Z,59.13
2023-02-18T14:21:42.117Z,59.17
2023-02-18T14:24:12.273Z,59.29
2023-02-18T14:26:49.655Z,58.93
2023-02-18T14:29:28.786Z,58.86
2023-02-18T14:32:01.674Z,59.29
2023-02-18T14:35:12.937Z,59.07
2023-02-18T14:38:27.848Z,58.49
2023-02-18T14:41:22.409Z,57.95
2023-02-18T14:44:17.630Z,57.74
2023-02-18T14:47:06.183Z,57.20
2023-02-18T14:49:42.780Z,56.74
2023-02-18T14:52:23.217Z,56.68
2023-02-18T14:54:51.878Z,56.63
2023-02-18T14:57:28.679Z,56.44
2023-02-18T15:00:02.195Z,56.20
2023-02-18T15:02:30.967Z,56.27
2023-02-18T15:05:14.609Z,55.82
2023-02-18T15:07:41.552Z,55.62
2023-02-18T15:10:16.148Z,55.13
2023-02-18T15:12:43.299Z,54.95
2023-02-18T15:15:16.056Z,55.13
2023-02-18T15:17:49.436Z,54.49
2023-02-18T15:20:17.662Z,54.45
2023-02-18T15:22:44.914Z,54.03
2023-02-18T15:25:14.737Z,54.33
2023-02-18T15:27:45.784Z,54.49
2023-02-18T15:30:26.953Z,54.20
2023-02-18T15:32:56.602Z,54.19
2023-02-18T15:35:29.134Z,53.98
2023-02-18T15:37:59.556Z,54.09
2023-02-18T15:40:32.191Z,54.14
2023-02-18T15:43:03.934Z,54.04
2023-02-18T15:45:35.559Z,54.39
2023-02-18T15:48:04.679Z,53.92
2023-02-18T15:50:36.100Z,54.20
2023-02-18T15:53:07.506Z,54.43
2023-02-18T15:55:40.323Z,54.45
2023-02-18T15:58:15.257Z,54.01
2023-02-18T16:00:50.003Z,54.39
2023-02-18T16:03:23.203Z,54.43
2023-02-18T16:06:07.031Z,54.54
2023-02-18T16:08:34.137Z,54.56
2023-02-18T16:11:07.430Z,54.23
2023-02-18T16:13:37.080Z,54.01
2023-02-18T16:16:05.680Z,54.26
2023-02-18T16:18:39.204Z,54.38
2023-02-18T16:21:24.428Z,54.61
2023-02-18T16:23:57.793Z,55.20
2023-02-18T16:26:31.226Z,55.46
2023-02-18T16:29:14.114Z,55.77
2023-02-18T16:31:41.766Z,55.85
2023-02-18T16:34:08.993Z,56.34
2023-02-18T16:36:35.921Z,56.42
2023-02-18T16:39:03.465Z,56.38
2023-02-18T16:41:31.790Z,56.92
2023-02-18T16:43:58.897Z,56.74
2023-02-18T16:46:25.947Z,56.90
2023-02-18T16:48:55.773Z,56.74
2023-02-18T16:51:29.600Z,56.97
2023-02-18T16:53:56.899Z,56.75
2023-02-18T16:56:26.929Z,56.85
2023-02-18T16:58:55.195Z,56.97
2023-02-18T17:01:27.606Z,56.74
2023-02-18T17:03:55.501Z,56.99
2023-02-18T17:06:22.964Z,56.89
2023-02-18T17:08:50.593Z,57.22
2023-02-18T17:11:25.772Z,57.68
2023-02-18T17:13:55.634Z,57.70
2023-02-18T17:16:22.906Z,57.74
2023-02-18T17:18:50.142Z,57.92
2023-02-18T17:21:20.087Z,57.67
2023-02-18T17:23:48.804Z,58.21
2023-02-18T17:26:19.810Z,57.80
2023-02-18T17:28:47.482Z,57.64
2023-02-18T17:31:20.527Z,57.42
2023-02-18T17:33:47.818Z,57.29
2023-02-18T17:36:14.914Z,57.02
2023-02-18T17:38:42.172Z,57.06
2023-02-18T17:41:12.839Z,57.36
2023-02-18T17:43:40.501Z,56.94
2023-02-18T17:46:13.318Z,57.30
2023-02-18T17:48:43.161Z,57.09
2023-02-18T17:51:24.169Z,57.10
2023-02-18T17:53:51.348Z,57.05
2023-02-18T17:56:18.613Z,56.95
2023-02-18T17:58:46.417Z,57.16
2023-02-18T18:01:13.483Z,56.87
2023-02-18T18:03:41.718Z,56.93
2023-02-18T18:06:16.417Z,56.87
2023-02-18T18:08:43.914Z,57.03
2023-02-18T18:11:16.580Z,57.02
2023-02-18T18:13:45.630Z,56.96
2023-02-18T18:16:16.609Z,56.74
2023-02-18T18:18:45.416Z,56.69
2023-02-18T18:21:21.577Z,57.02
2023-02-18T18:23:49.848Z,56.72
2023-02-18T18:26:17.164Z,56.60
2023-02-18T18:28:44.294Z,56.60
2023-02-18T18:31:15.583Z,56.57
2023-02-18T18:33:48.687Z,56.77
2023-02-18T18:36:16.563Z,56.69
2023-02-18T18:38:43.634Z,56.52
2023-02-18T18:41:14.797Z,56.82
2023-02-18T18:43:41.767Z,56.56
2023-02-18T18:46:08.869Z,56.78
2023-02-18T18:48:35.883Z,56.51
2023-02-18T18:51:05.574Z,56.46
2023-02-18T18:53:35.555Z,56.87
2023-02-18T18:56:06.354Z,56.59
2023-02-18T18:58:33.879Z,56.38
2023-02-18T19:01:05.454Z,56.40
2023-02-18T19:03:38.177Z,56.23
2023-02-18T19:06:06.720Z,56.55
2023-02-18T19:08:34.145Z,56.47
2023-02-18T19:11:03.299Z,56.54
2023-02-18T19:13:33.683Z,56.38
2023-02-18T19:16:06.202Z,56.22
2023-02-18T19:18:33.639Z,56.19
2023-02-18T19:21:04.690Z,56.43
2023-02-18T19:23:34.019Z,56.27
2023-02-18T19:26:01.112Z,56.22
2023-02-18T19:28:28.342Z,56.45
2023-02-18T19:30:55.498Z,56.64
2023-02-18T19:33:22.744Z,56.52
2023-02-18T19:35:49.732Z,56.75
2023-02-18T19:38:18.226Z,56.61
2023-02-18T19:40:46.747Z,56.45
2023-02-18T19:43:14.233Z,56.50
2023-02-18T19:45:43.467Z,56.18
2023-02-18T19:48:12.025Z,56.55
2023-02-18T19:50:41.725Z,56.70
2023-02-18T19:53:09.916Z,56.33
2023-02-18T19:55:37.134Z,56.59
2023-02-18T19:58:05.880Z,56.66
2023-02-18T20:00:32.955Z,56.38
2023-02-18T20:02:59.901Z,56.83
2023-02-18T20:05:27.309Z,56.22
2023-02-18T20:07:54.242Z,56.45
2023-02-18T20:10:22.417Z,56.41
2023-02-18T20:12:52.845Z,56.43
2023-02-18T20:15:22.311Z,56.38
2023-02-18T20:17:49.798Z,56.51
2023-02-18T20:20:17.573Z,56.77
2023-02-18T20:22:45.065Z,56.52
2023-02-18T20:25:12.038Z,56.50
2023-02-18T20:27:45.276Z,56.75
2023-02-18T20:30:22.968Z,56.71
2023-02-18T20:32:49.984Z,56.92
2023-02-18T20:35:16.992Z,56.78
2023-02-18T20:37:43.900Z,56.94
2023-02-18T20:40:11.209Z,56.90
2023-02-18T20:42:38.824Z,56.78
2023-02-18T20:45:06.476Z,56.84
2023-02-18T20:47:34.945Z,56.74
2023-02-18T20:50:01.839Z,56.90
2023-02-18T20:52:28.851Z,56.95
2023-02-18T20:54:55.769Z,57.04
2023-02-18T20:57:22.901Z,57.23
2023-02-18T20:59:49.820Z,57.12
2023-02-18T21:02:17.550Z,57.46
2023-02-18T21:04:46.050Z,57.42
2023-02-18T21:07:12.968Z,57.63
2023-02-18T21:09:39.907Z,57.69
2023-02-18T21:12:07.043Z,57.68
2023-02-18T21:14:33.965Z,57.75
2023-02-18T21:17:00.943Z,57.78
2023-02-18T21:19:27.994Z,57.82
2023-02-18T21:21:56.884Z,58.18
2023-02-18T21:24:23.818Z,58.16
2023-02-18T21:26:50.812Z,58.31
2023-02-18T21:29:17.770Z,58.28
2023-02-18T21:31:45.011Z,58.54
2023-02-18T21:34:14.948Z,58.58
2023-02-18T21:36:43.093Z,58.47
2023-02-18T21:39:11.842Z,58.35
2023-02-18T21:41:40.958Z,58.63
2023-02-18T21:44:08.329Z,58.67
2023-02-18T21:46:36.553Z,58.81
2023-02-18T21:49:09.747Z,59.00
2023-02-18T21:51:59.472Z,59.09
2023-02-18T21:54:31.290Z,59.09
2023-02-18T21:57:00.914Z,59.08
2023-02-18T21:59:30.227Z,59.20
2023-02-18T22:02:01.838Z,59.05
2023-02-18T22:04:31.611Z,59.08
2023-02-18T22:06:59.042Z,59.19
2023-02-18T22:09:27.605Z,59.16
2023-02-18T22:11:54.565Z,59.28
2023-02-18T22:14:22.098Z,59.14
2023-02-18T22:16:49.202Z,59.16
2023-02-18T22:19:16.224Z,59.24
2023-02-18T22:21:44.217Z,59.25
2023-02-18T22:24:13.597Z,59.52
2023-02-18T22:26:43.817Z,59.37
2023-02-18T22:29:12.128Z,59.37
2023-02-18T22:31:39.669Z,59.45
2023-02-18T22:34:06.796Z,59.40
2023-02-18T22:36:33.982Z,59.61
2023-02-18T22:39:02.686Z,59.67
2023-02-18T22:41:31.707Z,59.75
2023-02-18T22:44:03.598Z,59.81
2023-02-18T22:46:33.028Z,59.88
2023-02-18T22:49:00.825Z,59.87
2023-02-18T22:51:31.287Z,59.57
2023-02-18T22:54:00.417Z,59.68
2023-02-18T22:56:29.246Z,59.91
2023-02-18T22:58:59.963Z,59.78
2023-02-18T23:01:31.020Z,59.59
2023-02-18T23:04:03.770Z,60.12
2023-02-18T23:06:30.799Z,60.05
2023-02-18T23:08:57.955Z,60.06
2023-02-18T23:11:25.510Z,59.74
2023-02-18T23:14:13.293Z,59.37
2023-02-18T23:17:00.815Z,58.82
2023-02-18T23:19:31.312Z,59.04
2023-02-18T23:21:58.481Z,59.73
2023-02-18T23:24:25.515Z,59.25
2023-02-18T23:26:52.816Z,58.93
2023-02-18T23:29:20.364Z,58.78
2023-02-18T23:31:48.779Z,59.15
2023-02-18T23:34:17.217Z,59.69
2023-02-18T23:36:45.871Z,59.66
2023-02-18T23:39:16.849Z,59.33
2023-02-18T23:41:44.194Z,59.89
2023-02-18T23:44:14.389Z,59.88
2023-02-18T23:46:44.412Z,59.83
2023-02-18T23:49:15.457Z,60.18
2023-02-18T23:51:43.074Z,60.08
2023-02-18T23:54:11.017Z,59.57
2023-02-18T23:56:38.067Z,59.38
2023-02-18T23:59:06.328Z,59.38
